createdAt,value
2018-12-30T00:01:55.928Z,99140.41
2018-12-30T00:04:24.939Z,99144.78
2018-12-30T00:06:53.824Z,99156.55
2018-12-30T00:09:22.338Z,99165.59
2018-12-30T00:11:50.748Z,99171.09
2018-12-30T00:14:19.151Z,99169.19
2018-12-30T00:16:47.950Z,99171.87
2018-12-30T00:19:16.357Z,99180.94
2018-12-30T00:21:45.154Z,99186.41
2018-12-30T00:24:13.550Z,99188.91
2018-12-30T00:26:42.331Z,99170.56
2018-12-30T00:29:10.733Z,99174.40
2018-12-30T00:31:39.128Z,99168.89
2018-12-30T00:34:07.528Z,99158.19
2018-12-30T00:36:35.942Z,99159.29
2018-12-30T00:39:06.178Z,99146.69
2018-12-30T00:41:34.910Z,99138.21
2018-12-30T00:44:03.326Z,99123.73
2018-12-30T00:46:31.772Z,99129.70
2018-12-30T00:49:00.195Z,99130.27
2018-12-30T00:51:28.963Z,99127.27
2018-12-30T00:53:57.391Z,99139.34
2018-12-30T00:56:25.779Z,99143.69
2018-12-30T00:58:54.239Z,99149.92
2018-12-30T01:01:22.965Z,99150.23
2018-12-30T01:03:51.435Z,99161.70
2018-12-30T01:06:19.877Z,99157.56
2018-12-30T01:08:48.674Z,99164.67
2018-12-30T01:11:17.068Z,99161.94
2018-12-30T01:13:45.780Z,99160.27
2018-12-30T01:16:14.195Z,99162.17
2018-12-30T01:18:43.067Z,99166.81
2018-12-30T01:21:11.464Z,99154.80
2018-12-30T01:23:40.036Z,99152.06
2018-12-30T01:26:08.510Z,99160.23
2018-12-30T01:28:37.281Z,99164.67
2018-12-30T01:31:06.006Z,99164.11
2018-12-30T01:33:34.405Z,99165.27
2018-12-30T01:36:02.883Z,99162.00
2018-12-30T01:38:31.502Z,99174.84
2018-12-30T01:40:59.920Z,99181.74
2018-12-30T01:43:28.404Z,99170.80
2018-12-30T01:45:57.041Z,99172.11
2018-12-30T01:48:25.457Z,99177.61
2018-12-30T01:50:53.866Z,99171.03
2018-12-30T01:53:22.258Z,99183.14
2018-12-30T01:55:50.981Z,99192.18
2018-12-30T01:58:19.665Z,99180.16
2018-12-30T02:00:48.063Z,99173.59
2018-12-30T02:03:16.838Z,99178.77
2018-12-30T02:05:45.242Z,99176.06
2018-12-30T02:08:13.910Z,99180.97
2018-12-30T02:10:42.590Z,99184.53
2018-12-30T02:13:11.269Z,99185.91
2018-12-30T02:15:39.961Z,99190.01
2018-12-30T02:18:08.423Z,99190.31
2018-12-30T02:20:36.834Z,99200.16
2018-12-30T02:23:05.231Z,99217.13
2018-12-30T02:25:33.629Z,99223.98
2018-12-30T02:28:02.036Z,99225.88
2018-12-30T02:30:30.449Z,99230.81
2018-12-30T02:32:58.837Z,99227.84
2018-12-30T02:35:27.248Z,99221.53
2018-12-30T02:37:55.644Z,99224.03
2018-12-30T02:40:24.041Z,99219.63
2018-12-30T02:42:52.627Z,99224.33
2018-12-30T02:45:21.316Z,99230.61
2018-12-30T02:47:49.785Z,99230.64
2018-12-30T02:50:18.184Z,99232.84
2018-12-30T02:52:46.583Z,99231.50
2018-12-30T02:55:15.158Z,99231.27
2018-12-30T02:57:43.550Z,99234.20
2018-12-30T03:00:11.965Z,99234.15
2018-12-30T03:02:40.601Z,99241.32
2018-12-30T03:05:09.001Z,99244.12
2018-12-30T03:07:37.756Z,99247.59
2018-12-30T03:10:06.489Z,99250.87
2018-12-30T03:12:34.887Z,99256.38
2018-12-30T03:15:03.621Z,99254.67
2018-12-30T03:17:32.289Z,99256.70
2018-12-30T03:20:00.684Z,99259.44
2018-12-30T03:22:29.080Z,99256.17
2018-12-30T03:24:57.496Z,99245.22
2018-12-30T03:27:25.896Z,99243.82
2018-12-30T03:29:54.292Z,99246.73
2018-12-30T03:32:22.706Z,99243.25
2018-12-30T03:34:51.103Z,99238.76
2018-12-30T03:37:19.502Z,99233.55
2018-12-30T03:39:47.919Z,99234.12
2018-12-30T03:42:16.314Z,99228.08
2018-12-30T03:44:44.704Z,99229.98
2018-12-30T03:47:13.118Z,99235.19
2018-12-30T03:49:41.516Z,99225.05
2018-12-30T03:52:09.944Z,99228.31
2018-12-30T03:54:38.583Z,99232.69
2018-12-30T03:57:06.977Z,99217.88
2018-12-30T03:59:35.391Z,99217.61
2018-12-30T04:02:03.791Z,99209.09
2018-12-30T04:04:32.181Z,99201.16
2018-12-30T04:07:00.895Z,99203.89
2018-12-30T04:09:29.291Z,99208.30
2018-12-30T04:11:57.685Z,99211.27
2018-12-30T04:14:26.438Z,99212.10
2018-12-30T04:16:54.834Z,99223.91
2018-12-30T04:19:23.225Z,99224.14
2018-12-30T04:21:51.636Z,99229.89
2018-12-30T04:24:20.359Z,99232.35
2018-12-30T04:26:48.759Z,99232.09
2018-12-30T04:29:17.169Z,99237.86
2018-12-30T04:31:45.560Z,99245.80
2018-12-30T04:34:13.977Z,99244.47
2018-12-30T04:36:42.364Z,99247.70
2018-12-30T04:39:10.774Z,99251.84
2018-12-30T04:41:39.525Z,99258.68
2018-12-30T04:44:07.917Z,99259.78
2018-12-30T04:46:36.591Z,99264.98
2018-12-30T04:49:04.984Z,99271.56
2018-12-30T04:51:33.383Z,99259.22
2018-12-30T04:54:01.793Z,99269.92
2018-12-30T04:56:30.194Z,99265.02
2018-12-30T04:58:58.586Z,99270.52
2018-12-30T05:01:27.270Z,99268.63
2018-12-30T05:03:55.673Z,99271.09
2018-12-30T05:06:24.088Z,99278.23
2018-12-30T05:08:52.525Z,99278.20
2018-12-30T05:11:20.921Z,99284.24
2018-12-30T05:13:49.334Z,99274.96
2018-12-30T05:16:18.193Z,99276.33
2018-12-30T05:18:46.616Z,99275.53
2018-12-30T05:21:15.014Z,99280.50
2018-12-30T05:23:43.709Z,99275.06
2018-12-30T05:26:12.354Z,99278.00
2018-12-30T05:28:40.755Z,99276.42
2018-12-30T05:31:09.409Z,99282.17
2018-12-30T05:33:38.057Z,99280.83
2018-12-30T05:36:06.440Z,99283.57
2018-12-30T05:38:35.092Z,99298.36
2018-12-30T05:41:03.725Z,99289.05
2018-12-30T05:43:32.119Z,99301.86
2018-12-30T05:46:00.536Z,99315.31
2018-12-30T05:48:29.181Z,99318.05
2018-12-30T05:50:57.591Z,99332.23
2018-12-30T05:53:26.045Z,99335.27
2018-12-30T05:55:54.701Z,99336.38
2018-12-30T05:58:23.092Z,99337.45
2018-12-30T06:00:51.487Z,99334.14
2018-12-30T06:03:19.903Z,99342.36
2018-12-30T06:05:48.537Z,99347.02
2018-12-30T06:08:16.931Z,99355.80
2018-12-30T06:10:45.341Z,99360.98
2018-12-30T06:13:13.741Z,99366.65
2018-12-30T06:15:42.421Z,99376.91
2018-12-30T06:18:11.110Z,99373.80
2018-12-30T06:20:39.806Z,99373.56
2018-12-30T06:23:08.199Z,99381.39
2018-12-30T06:25:36.856Z,99381.13
2018-12-30T06:28:05.260Z,99382.23
2018-12-30T06:30:33.651Z,99386.61
2018-12-30T06:33:02.063Z,99393.45
2018-12-30T06:35:30.461Z,99400.55
2018-12-30T06:37:58.859Z,99409.08
2018-12-30T06:40:27.267Z,99415.88
2018-12-30T06:42:55.668Z,99417.50
2018-12-30T06:45:24.067Z,99423.23
2018-12-30T06:47:52.481Z,99423.81
2018-12-30T06:50:20.879Z,99432.25
2018-12-30T06:52:49.274Z,99427.34
2018-12-30T06:55:17.686Z,99436.40
2018-12-30T06:57:46.097Z,99432.82
2018-12-30T07:00:14.627Z,99440.50
2018-12-30T07:02:43.018Z,99445.41
2018-12-30T07:05:11.430Z,99446.50
2018-12-30T07:07:39.824Z,99443.46
2018-12-30T07:10:08.494Z,99446.82
2018-12-30T07:12:36.904Z,99452.59
2018-12-30T07:15:06.043Z,99461.08
2018-12-30T07:17:34.447Z,99464.61
2018-12-30T07:20:03.238Z,99469.81
2018-12-30T07:22:31.629Z,99471.66
2018-12-30T07:25:00.032Z,99474.48
2018-12-30T07:27:28.439Z,99485.44
2018-12-30T07:29:56.835Z,99481.61
2018-12-30T07:32:25.537Z,99482.40
2018-12-30T07:34:54.224Z,99486.28
2018-12-30T07:37:22.913Z,99491.45
2018-12-30T07:39:51.601Z,99502.39
2018-12-30T07:42:20.002Z,99504.87
2018-12-30T07:44:48.408Z,99503.58
2018-12-30T07:47:16.827Z,99499.97
2018-12-30T07:49:45.203Z,99509.28
2018-12-30T07:52:13.902Z,99516.91
2018-12-30T07:54:42.588Z,99532.23
2018-12-30T07:57:10.982Z,99515.55
2018-12-30T07:59:39.381Z,99521.02
2018-12-30T08:02:07.792Z,99526.71
2018-12-30T08:04:36.203Z,99528.39
2018-12-30T08:07:04.590Z,99530.30
2018-12-30T08:09:33.000Z,99532.80
2018-12-30T08:12:01.647Z,99523.14
2018-12-30T08:14:30.152Z,99524.38
2018-12-30T08:16:58.535Z,99521.86
2018-12-30T08:19:26.931Z,99525.97
2018-12-30T08:21:55.575Z,99520.50
2018-12-30T08:24:24.230Z,99522.78
2018-12-30T08:26:52.627Z,99516.82
2018-12-30T08:29:21.326Z,99513.59
2018-12-30T08:31:50.009Z,99524.25
2018-12-30T08:34:18.692Z,99519.13
2018-12-30T08:36:47.090Z,99530.38
2018-12-30T08:39:15.499Z,99537.22
2018-12-30T08:41:43.915Z,99537.80
2018-12-30T08:44:12.617Z,99529.37
2018-12-30T08:46:41.013Z,99530.29
2018-12-30T08:49:09.690Z,99528.08
2018-12-30T08:51:38.085Z,99530.38
2018-12-30T08:54:06.752Z,99532.02
2018-12-30T08:56:35.433Z,99536.95
2018-12-30T08:59:03.829Z,99542.52
2018-12-30T09:01:32.501Z,99536.89
2018-12-30T09:04:01.189Z,99543.63
2018-12-30T09:06:29.590Z,99565.25
2018-12-30T09:08:58.369Z,99563.95
2018-12-30T09:11:26.788Z,99572.17
2018-12-30T09:13:55.185Z,99577.92
2018-12-30T09:16:23.581Z,99579.90
2018-12-30T09:18:52.277Z,99588.09
2018-12-30T09:21:20.680Z,99588.36
2018-12-30T09:23:49.072Z,99583.86
2018-12-30T09:26:17.824Z,99585.00
2018-12-30T09:28:46.510Z,99593.75
2018-12-30T09:31:14.904Z,99589.04
2018-12-30T09:33:43.384Z,99600.27
2018-12-30T09:36:11.717Z,99609.09
2018-12-30T09:38:40.117Z,99605.60
2018-12-30T09:41:08.529Z,99603.51
2018-12-30T09:43:37.205Z,99613.52
2018-12-30T09:46:05.607Z,99612.91
2018-12-30T09:48:34.171Z,99610.02
2018-12-30T09:51:02.493Z,99610.88
2018-12-30T09:53:30.900Z,99619.98
2018-12-30T09:55:59.570Z,99628.75
2018-12-30T09:58:28.209Z,99623.72
2018-12-30T10:00:56.614Z,99616.87
2018-12-30T10:03:25.029Z,99625.43
2018-12-30T10:05:53.427Z,99619.68
2018-12-30T10:08:21.824Z,99614.39
2018-12-30T10:10:50.585Z,99613.52
2018-12-30T10:13:19.048Z,99624.72
2018-12-30T10:15:47.754Z,99626.73
2018-12-30T10:18:16.222Z,99634.23
2018-12-30T10:20:44.921Z,99629.63
2018-12-30T10:23:13.324Z,99627.91
2018-12-30T10:25:42.087Z,99624.91
2018-12-30T10:28:10.488Z,99621.02
2018-12-30T10:30:38.890Z,99620.00
2018-12-30T10:33:07.633Z,99616.45
2018-12-30T10:35:36.317Z,99609.28
2018-12-30T10:38:04.720Z,99610.81
2018-12-30T10:40:33.136Z,99612.75
2018-12-30T10:43:01.533Z,99615.50
2018-12-30T10:45:29.930Z,99611.69
2018-12-30T10:47:58.345Z,99609.20
2018-12-30T10:50:26.746Z,99603.02
2018-12-30T10:52:55.148Z,99607.10
2018-12-30T10:55:23.563Z,99605.47
2018-12-30T10:57:51.949Z,99608.14
2018-12-30T11:00:20.416Z,99609.02
2018-12-30T11:02:49.090Z,99613.33
2018-12-30T11:05:17.511Z,99615.00
2018-12-30T11:07:46.175Z,99615.60
2018-12-30T11:10:14.592Z,99607.64
2018-12-30T11:12:43.056Z,99615.70
2018-12-30T11:15:11.471Z,99611.16
2018-12-30T11:17:39.893Z,99612.19
2018-12-30T11:20:08.435Z,99611.59
2018-12-30T11:22:37.069Z,99603.53
2018-12-30T11:25:45.639Z,99590.31
2018-12-30T11:28:14.036Z,99590.84
2018-12-30T11:30:42.695Z,99595.59
2018-12-30T11:33:11.121Z,99592.55
2018-12-30T11:35:39.516Z,99587.84
2018-12-30T11:38:07.918Z,99588.34
2018-12-30T11:40:36.337Z,99584.83
2018-12-30T11:43:04.732Z,99574.06
2018-12-30T11:45:33.415Z,99579.84
2018-12-30T11:48:01.833Z,99575.43
2018-12-30T11:50:30.480Z,99579.67
2018-12-30T11:52:59.169Z,99583.55
2018-12-30T11:55:27.584Z,99586.00
2018-12-30T11:57:55.979Z,99590.25
2018-12-30T12:00:44.063Z,99599.55
2018-12-30T12:03:12.457Z,99601.52
2018-12-30T12:05:40.852Z,99604.86
2018-12-30T12:08:09.256Z,99607.77
2018-12-30T12:10:37.987Z,99605.73
2018-12-30T12:13:06.465Z,99604.80
2018-12-30T12:15:34.866Z,99616.49
2018-12-30T12:18:03.279Z,99612.19
2018-12-30T12:20:32.017Z,99612.15
2018-12-30T12:23:00.702Z,99611.61
2018-12-30T12:25:29.120Z,99613.89
2018-12-30T12:27:57.515Z,99606.77
2018-12-30T12:30:26.248Z,99605.40
2018-12-30T12:32:54.935Z,99610.58
2018-12-30T12:35:23.331Z,99609.20
2018-12-30T12:37:51.999Z,99606.66
2018-12-30T12:40:20.648Z,99605.33
2018-12-30T12:42:49.370Z,99609.20
2018-12-30T12:45:18.059Z,99607.77
2018-12-30T12:47:46.475Z,99599.61
2018-12-30T12:50:14.870Z,99588.91
2018-12-30T12:52:43.605Z,99595.13
2018-12-30T12:55:12.018Z,99592.08
2018-12-30T12:57:40.413Z,99605.48
2018-12-30T13:00:48.730Z,99600.91
2018-12-30T13:03:17.125Z,99600.58
2018-12-30T13:06:04.645Z,99606.32
2018-12-30T13:08:33.043Z,99602.28
2018-12-30T13:11:01.760Z,99605.95
2018-12-30T13:13:30.433Z,99607.23
2018-12-30T13:16:03.303Z,99605.87
2018-12-30T13:18:29.251Z,99612.27
2018-12-30T13:20:57.663Z,99617.63
2018-12-30T13:23:26.062Z,99617.33
2018-12-30T13:25:54.452Z,99617.40
2018-12-30T13:28:22.869Z,99620.98
2018-12-30T13:30:51.562Z,99625.84
2018-12-30T13:33:20.209Z,99605.29
2018-12-30T13:35:48.915Z,99606.70
2018-12-30T13:38:17.564Z,99612.59
2018-12-30T13:40:45.962Z,99618.61
2018-12-30T13:43:14.374Z,99609.63
2018-12-30T13:45:42.765Z,99621.34
2018-12-30T13:48:11.421Z,99627.36
2018-12-30T13:50:39.832Z,99621.08
2018-12-30T13:53:08.490Z,99611.27
2018-12-30T13:55:36.889Z,99613.05
2018-12-30T13:58:05.284Z,99607.60
2018-12-30T14:00:33.681Z,99605.44
2018-12-30T14:03:02.091Z,99614.31
2018-12-30T14:05:30.501Z,99616.07
2018-12-30T14:07:58.897Z,99607.84
2018-12-30T14:10:27.548Z,99602.36
2018-12-30T14:12:55.960Z,99600.08
2018-12-30T14:15:24.362Z,99597.60
2018-12-30T14:18:12.450Z,99593.42
2018-12-30T14:20:40.846Z,99584.16
2018-12-30T14:23:09.242Z,99589.41
2018-12-30T14:25:37.652Z,99602.28
2018-12-30T14:28:06.054Z,99599.40
2018-12-30T14:30:34.448Z,99597.49
2018-12-30T14:33:02.872Z,99610.02
2018-12-30T14:35:31.269Z,99614.39
2018-12-30T14:37:59.665Z,99613.73
2018-12-30T14:40:30.008Z,99624.30
2018-12-30T14:42:58.507Z,99617.14
2018-12-30T14:45:27.239Z,99630.19
2018-12-30T14:47:55.656Z,99624.97
2018-12-30T14:50:24.054Z,99631.55
2018-12-30T14:52:52.518Z,99626.56
2018-12-30T14:55:20.864Z,99631.10
2018-12-30T14:57:49.544Z,99642.83
2018-12-30T15:00:17.940Z,99641.02
2018-12-30T15:02:46.609Z,99645.21
2018-12-30T15:05:15.002Z,99644.38
2018-12-30T15:07:43.674Z,99654.09
2018-12-30T15:10:12.355Z,99649.63
2018-12-30T15:12:40.749Z,99659.14
2018-12-30T15:15:09.212Z,99659.80
2018-12-30T15:17:37.910Z,99665.41
2018-12-30T15:20:08.228Z,99671.73
2018-12-30T15:22:36.636Z,99670.80
2018-12-30T15:25:11.576Z,99671.85
2018-12-30T15:27:36.157Z,99672.17
2018-12-30T15:30:06.188Z,99668.22
2018-12-30T15:32:34.610Z,99668.22
2018-12-30T15:35:03.009Z,99666.23
2018-12-30T15:37:31.414Z,99664.74
2018-12-30T15:40:00.159Z,99662.22
2018-12-30T15:42:28.543Z,99661.07
2018-12-30T15:44:56.956Z,99659.64
2018-12-30T15:47:25.364Z,99659.34
2018-12-30T15:49:54.100Z,99654.86
2018-12-30T15:52:22.501Z,99662.12
2018-12-30T15:54:50.933Z,99660.75
2018-12-30T15:57:19.333Z,99660.23
2018-12-30T15:59:48.022Z,99663.18
2018-12-30T16:02:16.432Z,99654.66
2018-12-30T16:04:45.088Z,99668.91
2018-12-30T16:07:13.773Z,99675.88
2018-12-30T16:09:42.196Z,99686.72
2018-12-30T16:12:11.529Z,99694.78
2018-12-30T16:14:40.169Z,99701.99
2018-12-30T16:17:08.585Z,99706.64
2018-12-30T16:19:36.985Z,99702.94
2018-12-30T16:22:05.383Z,99697.63
2018-12-30T16:24:33.797Z,99693.14
2018-12-30T16:27:02.272Z,99677.88
2018-12-30T16:29:30.670Z,99680.30
2018-12-30T16:31:59.093Z,99678.56
2018-12-30T16:34:27.567Z,99676.41
2018-12-30T16:36:56.265Z,99677.56
2018-12-30T16:39:24.677Z,99679.45
2018-12-30T16:41:53.072Z,99675.94
2018-12-30T16:44:21.475Z,99668.30
2018-12-30T16:46:49.893Z,99665.23
2018-12-30T16:49:18.288Z,99663.23
2018-12-30T16:51:46.944Z,99663.55
2018-12-30T16:54:15.628Z,99654.81
2018-12-30T16:56:44.047Z,99649.66
2018-12-30T16:59:12.445Z,99650.70
2018-12-30T17:01:40.848Z,99645.75
2018-12-30T17:04:09.262Z,99638.48
2018-12-30T17:06:37.662Z,99636.11
2018-12-30T17:09:06.635Z,99636.59
2018-12-30T17:11:35.046Z,99635.45
2018-12-30T17:14:03.680Z,99647.81
2018-12-30T17:16:32.371Z,99656.92
2018-12-30T17:19:01.024Z,99656.45
2018-12-30T17:21:29.749Z,99653.28
2018-12-30T17:23:58.164Z,99648.34
2018-12-30T17:26:26.569Z,99654.28
2018-12-30T17:28:55.021Z,99652.81
2018-12-30T17:31:23.434Z,99657.97
2018-12-30T17:33:51.845Z,99659.34
2018-12-30T17:36:20.247Z,99670.02
2018-12-30T17:38:49.009Z,99667.88
2018-12-30T17:41:17.651Z,99669.34
2018-12-30T17:43:46.382Z,99675.92
2018-12-30T17:46:18.451Z,99673.19
2018-12-30T17:48:45.191Z,99669.03
2018-12-30T17:51:13.874Z,99683.48
2018-12-30T17:53:42.270Z,99677.03
2018-12-30T17:56:10.671Z,99679.03
2018-12-30T17:58:39.417Z,99666.94
2018-12-30T18:01:08.109Z,99665.13
2018-12-30T18:03:36.502Z,99672.50
2018-12-30T18:06:05.167Z,99667.81
2018-12-30T18:08:33.855Z,99675.83
2018-12-30T18:11:02.540Z,99681.77
2018-12-30T18:13:31.225Z,99678.08
2018-12-30T18:15:59.632Z,99672.02
2018-12-30T18:18:28.033Z,99676.25
2018-12-30T18:20:56.448Z,99671.55
2018-12-30T18:23:25.088Z,99675.77
2018-12-30T18:25:58.575Z,99677.09
2018-12-30T18:28:23.625Z,99677.34
2018-12-30T18:30:52.023Z,99675.41
2018-12-30T18:33:20.678Z,99681.20
2018-12-30T18:35:49.071Z,99678.12
2018-12-30T18:38:17.715Z,99672.72
2018-12-30T18:40:46.126Z,99668.77
2018-12-30T18:43:14.840Z,99651.44
2018-12-30T18:45:43.250Z,99649.97
2018-12-30T18:48:11.905Z,99643.06
2018-12-30T18:50:40.593Z,99648.86
2018-12-30T18:53:08.989Z,99652.39
2018-12-30T18:55:37.661Z,99662.23
2018-12-30T18:58:06.296Z,99661.91
2018-12-30T19:00:34.696Z,99668.17
2018-12-30T19:03:03.116Z,99665.50
2018-12-30T19:05:31.786Z,99668.81
2018-12-30T19:08:00.181Z,99669.34
2018-12-30T19:10:29.411Z,99668.92
2018-12-30T19:12:57.809Z,99660.97
2018-12-30T19:15:26.198Z,99659.77
2018-12-30T19:17:54.617Z,99658.55
2018-12-30T19:20:23.010Z,99655.86
2018-12-30T19:22:51.678Z,99650.02
2018-12-30T19:25:20.086Z,99652.81
2018-12-30T19:27:48.499Z,99659.50
2018-12-30T19:30:16.899Z,99650.19
2018-12-30T19:32:45.308Z,99656.13
2018-12-30T19:35:13.706Z,99648.34
2018-12-30T19:37:42.115Z,99652.89
2018-12-30T19:40:11.085Z,99650.48
2018-12-30T19:42:39.488Z,99650.75
2018-12-30T19:45:07.970Z,99652.03
2018-12-30T19:47:36.431Z,99656.86
2018-12-30T19:50:06.263Z,99656.69
2018-12-30T19:52:34.679Z,99652.98
2018-12-30T19:55:03.076Z,99648.83
2018-12-30T19:57:31.474Z,99642.30
2018-12-30T19:59:59.884Z,99639.44
2018-12-30T20:02:28.593Z,99635.96
2018-12-30T20:04:57.004Z,99643.64
2018-12-30T20:07:25.406Z,99646.09
2018-12-30T20:09:53.805Z,99655.63
2018-12-30T20:12:22.518Z,99650.80
2018-12-30T20:14:50.919Z,99657.34
2018-12-30T20:17:19.318Z,99660.23
2018-12-30T20:19:47.736Z,99656.39
2018-12-30T20:22:16.441Z,99657.18
2018-12-30T20:24:44.843Z,99652.09
2018-12-30T20:27:13.505Z,99650.85
2018-12-30T20:29:41.909Z,99655.12
2018-12-30T20:32:10.304Z,99653.22
2018-12-30T20:34:38.719Z,99651.54
2018-12-30T20:37:07.430Z,99645.13
2018-12-30T20:39:36.121Z,99645.60
2018-12-30T20:42:04.805Z,99639.65
2018-12-30T20:44:33.273Z,99641.50
2018-12-30T20:47:01.670Z,99640.92
2018-12-30T20:49:30.080Z,99638.33
2018-12-30T20:51:58.484Z,99640.25
2018-12-30T20:54:26.875Z,99644.89
2018-12-30T20:56:55.286Z,99642.56
2018-12-30T20:59:23.969Z,99637.63
2018-12-30T21:01:52.439Z,99635.94
2018-12-30T21:04:21.135Z,99634.87
2018-12-30T21:06:49.537Z,99629.88
2018-12-30T21:09:17.933Z,99630.77
2018-12-30T21:11:46.676Z,99621.99
2018-12-30T21:14:15.075Z,99621.10
2018-12-30T21:16:43.477Z,99624.75
2018-12-30T21:19:11.889Z,99598.50
2018-12-30T21:21:40.287Z,99611.39
2018-12-30T21:24:08.983Z,99607.69
2018-12-30T21:26:37.398Z,99614.80
2018-12-30T21:29:05.793Z,99621.05
2018-12-30T21:31:34.197Z,99615.51
2018-12-30T21:34:02.602Z,99617.58
2018-12-30T21:36:31.286Z,99614.59
2018-12-30T21:38:59.686Z,99609.84
2018-12-30T21:41:28.591Z,99609.97
2018-12-30T21:43:56.986Z,99607.28
2018-12-30T21:46:25.405Z,99607.11
2018-12-30T21:48:53.818Z,99602.52
2018-12-30T21:51:22.583Z,99602.42
2018-12-30T21:53:51.269Z,99604.30
2018-12-30T21:56:20.031Z,99602.06
2018-12-30T21:58:48.421Z,99593.23
2018-12-30T22:01:16.867Z,99592.78
2018-12-30T22:03:45.605Z,99596.05
2018-12-30T22:06:14.289Z,99591.80
2018-12-30T22:08:43.154Z,99596.47
2018-12-30T22:11:11.878Z,99598.90
2018-12-30T22:13:40.273Z,99596.81
2018-12-30T22:16:08.667Z,99591.92
2018-12-30T22:18:37.447Z,99598.58
2018-12-30T22:21:05.846Z,99599.56
2018-12-30T22:23:34.579Z,99592.05
2018-12-30T22:26:03.060Z,99586.39
2018-12-30T22:28:31.749Z,99587.61
2018-12-30T22:31:00.391Z,99582.56
2018-12-30T22:33:28.807Z,99581.57
2018-12-30T22:35:57.504Z,99585.61
2018-12-30T22:38:25.905Z,99583.25
2018-12-30T22:40:54.316Z,99582.06
2018-12-30T22:43:22.713Z,99576.94
2018-12-30T22:45:51.110Z,99587.25
2018-12-30T22:48:19.537Z,99591.13
2018-12-30T22:50:47.938Z,99591.33
2018-12-30T22:53:16.327Z,99590.16
2018-12-30T22:55:45.042Z,99587.09
2018-12-30T22:58:13.433Z,99578.95
2018-12-30T23:00:45.899Z,99572.56
2018-12-30T23:03:14.307Z,99576.78
2018-12-30T23:05:42.701Z,99576.63
2018-12-30T23:08:11.109Z,99565.97
2018-12-30T23:10:39.817Z,99570.05
2018-12-30T23:13:08.246Z,99573.06
2018-12-30T23:15:36.640Z,99567.74
2018-12-30T23:18:05.065Z,99568.78
2018-12-30T23:20:33.551Z,99570.05
2018-12-30T23:23:02.220Z,99560.69
2018-12-30T23:25:30.640Z,99561.64
2018-12-30T23:27:59.030Z,99566.72
2018-12-30T23:30:27.423Z,99567.05
2018-12-30T23:32:55.840Z,99563.31
2018-12-30T23:35:24.526Z,99560.13
2018-12-30T23:37:52.920Z,99561.48
2018-12-30T23:40:21.335Z,99568.11
2018-12-30T23:42:49.734Z,99576.70
2018-12-30T23:45:18.126Z,99579.81
2018-12-30T23:47:46.825Z,99579.97
2018-12-30T23:50:15.216Z,99575.59
2018-12-30T23:52:43.610Z,99573.69
2018-12-30T23:55:12.368Z,99565.61
2018-12-30T23:57:41.055Z,99564.66
